Time;durP1;ratioP1;P1;durP2;ratioP2;P2;SDS_P1;SDS_P2;PMS_P1;PMS_P2;Temp;Humidity;BMP_temperature;BMP_pressure;BME280_temperature;BME280_humidity;BME280_pressure;Samples;Min_cycle;Max_cycle;Signal;HPM_P1;HPM_P2
2023/10/06 06:10:56;;;;;;;;;12.50;11.00;;;;;20.91;48.31;102213.41;5072561;28;45412;-59
2023/10/06 06:13:22;;;;;;;;;8.50;8.50;;;;;21.28;46.95;102212.72;5055941;28;45272;-59
2023/10/06 06:15:48;;;;;;;;;11.25;9.75;;;;;21.50;46.62;102215.75;5055335;28;45297;-60
2023/10/06 06:18:13;;;;;;;;;12.75;11.25;;;;;21.65;46.45;102213.81;5043462;28;45234;-59
2023/10/06 06:20:41;;;;;;;;;11.75;8.75;;;;;21.74;45.72;102195.91;5048708;28;46327;-60
2023/10/06 06:23:12;;;;;;;;;15.75;12.00;;;;;21.97;45.53;102229.78;5054797;28;45523;-60
2023/10/06 06:25:38;;;;;;;;;10.00;10.00;;;;;21.97;45.19;102232.53;5053773;28;45722;-59
2023/10/06 06:28:05;;;;;;;;;12.00;10.50;;;;;22.01;44.96;102221.31;5050465;28;46014;-55
2023/10/06 06:30:33;;;;;;;;;16.25;10.00;;;;;22.10;44.85;102231.59;5041025;28;47284;-55
2023/10/06 06:33:01;;;;;;;;;10.00;8.75;;;;;22.13;44.62;102236.81;5054983;28;45374;-54
2023/10/06 06:35:28;;;;;;;;;9.00;8.00;;;;;22.10;44.57;102231.59;5054637;28;45242;-54
2023/10/06 06:38:01;;;;;;;;;10.25;10.25;;;;;22.12;44.41;102234.19;5054998;28;45288;-55
2023/10/06 06:40:29;;;;;;;;;11.75;10.25;;;;;22.24;44.31;102239.69;5053946;28;45456;-53
2023/10/06 06:42:57;;;;;;;;;10.50;10.25;;;;;22.31;44.19;102239.25;5054431;28;45448;-54
2023/10/06 06:45:28;;;;;;;;;11.00;9.75;;;;;22.34;43.61;102237.16;5054182;28;45465;-54
2023/10/06 06:50:29;;;;;;;;;11.25;9.75;;;;;22.39;43.47;102245.03;3282932;26;46137;-78
2023/10/06 06:52:56;;;;;;;;;11.25;11.00;;;;;22.35;43.58;102228.00;5027545;28;45634;-77
2023/10/06 06:55:21;;;;;;;;;13.75;10.50;;;;;22.41;43.73;102241.22;5029395;28;45472;-79
2023/10/06 06:57:49;;;;;;;;;11.50;11.25;;;;;22.42;43.40;102229.28;5015927;28;45431;-77
2023/10/06 07:00:22;;;;;;;;;12.75;10.00;;;;;22.50;43.38;102224.16;5008674;28;45490;-78
2023/10/06 07:02:54;;;;;;;;;11.00;11.00;;;;;22.55;43.42;102221.06;5008830;28;45549;-74
2023/10/06 07:05:22;;;;;;;;;11.50;10.25;;;;;22.59;43.56;102218.00;5012948;28;45684;-76
2023/10/06 07:07:50;;;;;;;;;9.75;8.75;;;;;22.47;43.41;102197.03;5013577;28;45372;-78
2023/10/06 07:10:21;;;;;;;;;13.50;10.75;;;;;22.52;43.29;102224.03;5006789;28;46150;-77
2023/10/06 07:12:48;;;;;;;;;10.25;7.00;;;;;22.66;43.26;102237.56;4997788;28;45386;-76
2023/10/06 07:15:17;;;;;;;;;8.00;8.00;;;;;22.70;43.14;102232.75;4997236;28;45552;-77
2023/10/06 07:17:51;;;;;;;;;11.50;11.50;;;;;22.74;42.77;102218.78;4997222;28;45673;-79
2023/10/06 07:20:18;;;;;;;;;13.50;11.25;;;;;22.87;42.82;102233.31;4990547;28;48065;-78
2023/10/06 07:22:52;;;;;;;;;12.00;8.75;;;;;22.91;42.67;102236.66;5005489;28;45491;-78
2023/10/06 07:25:20;;;;;;;;;10.75;10.75;;;;;22.79;42.90;102224.78;5004544;28;45493;-76
2023/10/06 07:27:47;;;;;;;;;17.25;12.50;;;;;23.01;42.33;102240.47;4979013;28;45684;-77
2023/10/06 07:30:16;;;;;;;;;12.75;12.75;;;;;23.04;42.45;102234.78;5010793;28;45441;-78
2023/10/06 07:32:46;;;;;;;;;13.75;12.75;;;;;22.88;42.76;102217.78;5017295;28;45372;-78
2023/10/06 07:35:17;;;;;;;;;15.00;13.00;;;;;23.01;42.74;102235.00;4998291;28;45390;-77
2023/10/06 07:37:44;;;;;;;;;12.75;12.75;;;;;23.14;42.15;102254.97;5016925;28;45524;-79
2023/10/06 07:40:18;;;;;;;;;14.00;12.00;;;;;23.19;42.29;102251.91;5016742;28;45335;-78
2023/10/06 07:42:46;;;;;;;;;14.25;14.25;;;;;23.27;41.88;102252.19;5013974;28;45533;-77
2023/10/06 07:45:12;;;;;;;;;14.00;14.00;;;;;23.25;42.02;102251.44;5015674;28;45518;-77
2023/10/06 07:47:39;;;;;;;;;7.00;6.00;;;;;23.29;42.17;102263.91;5015009;28;45469;-78
2023/10/06 07:50:05;;;;;;;;;14.75;13.00;;;;;23.25;41.92;102260.53;5013940;28;46148;-77
2023/10/06 07:52:35;;;;;;;;;13.00;13.00;;;;;23.30;41.83;102252.84;5014780;28;45537;-78
2023/10/06 07:55:06;;;;;;;;;14.25;11.50;;;;;23.29;42.06;102259.31;4998154;28;45342;-77
2023/10/06 07:57:32;;;;;;;;;13.75;13.75;;;;;23.34;41.82;102261.69;5011463;28;45203;-77
2023/10/06 08:00:05;;;;;;;;;22.25;18.00;;;;;23.32;42.14;102252.72;4999535;28;46471;-79
2023/10/06 08:02:31;;;;;;;;;12.25;12.25;;;;;23.23;42.22;102259.75;5000791;28;45438;-78
2023/10/06 08:04:56;;;;;;;;;14.50;13.00;;;;;23.36;42.04;102267.94;5000968;28;45545;-78
2023/10/06 08:07:30;;;;;;;;;14.75;13.75;;;;;23.53;42.02;102277.63;5002599;28;45607;-78
2023/10/06 08:09:59;;;;;;;;;18.50;16.75;;;;;23.47;42.07;102278.94;4997950;28;45447;-81
2023/10/06 08:12:27;;;;;;;;;12.00;12.00;;;;;23.57;42.16;102281.88;5007010;28;45356;-77
2023/10/06 08:14:52;;;;;;;;;17.50;15.00;;;;;23.69;41.64;102275.47;5008411;28;45414;-78
2023/10/06 08:17:20;;;;;;;;;18.50;13.00;;;;;23.66;41.79;102270.22;4999014;28;45566;-79
2023/10/06 08:19:46;;;;;;;;;13.50;13.50;;;;;23.72;41.74;102275.25;5004195;28;47132;-77
2023/10/06 08:22:12;;;;;;;;;13.75;11.00;;;;;23.78;41.44;102282.97;4998000;28;45296;-78
2023/10/06 08:24:38;;;;;;;;;14.00;13.75;;;;;24.01;41.12;102284.78;4996035;28;45218;-81
2023/10/06 08:27:04;;;;;;;;;19.50;16.75;;;;;23.92;41.38;102285.50;5013110;28;45348;-78
2023/10/06 08:29:30;;;;;;;;;15.75;14.00;;;;;24.02;41.21;102293.88;5016873;28;45501;-78
2023/10/06 08:31:55;;;;;;;;;16.75;14.50;;;;;24.01;41.19;102284.78;5016768;28;45407;-77
2023/10/06 08:34:21;;;;;;;;;13.75;13.00;;;;;24.04;41.43;102286.44;5020374;28;45852;-77
2023/10/06 08:36:47;;;;;;;;;17.25;13.25;;;;;24.02;41.06;102283.81;5007035;28;45427;-78
2023/10/06 08:39:14;;;;;;;;;15.50;14.00;;;;;24.11;40.87;102295.91;4999692;28;45471;-80
2023/10/06 08:41:43;;;;;;;;;13.25;13.25;;;;;24.10;40.82;102286.81;4995102;28;45397;-79
2023/10/06 08:44:12;;;;;;;;;17.00;15.00;;;;;24.16;40.65;102287.34;5001892;28;45521;-78
2023/10/06 08:46:41;;;;;;;;;14.00;14.00;;;;;24.22;40.82;102289.63;4997167;28;45519;-72
2023/10/06 08:49:07;;;;;;;;;15.75;15.75;;;;;24.36;41.29;102293.00;4992606;28;47680;-78
2023/10/06 08:51:33;;;;;;;;;18.00;17.25;;;;;24.37;40.46;102283.78;5018353;28;45517;-79
2023/10/06 08:54:01;;;;;;;;;20.00;19.00;;;;;24.37;41.06;102291.13;4995370;28;45270;-79
2023/10/06 08:56:28;;;;;;;;;19.00;16.75;;;;;24.31;40.50;102289.78;5016831;28;45415;-77
2023/10/06 08:58:53;;;;;;;;;19.25;19.25;;;;;24.36;40.74;102275.69;4991193;28;48487;-78
2023/10/06 09:01:18;;;;;;;;;17.25;16.00;;;;;24.46;40.44;102287.66;4998666;28;45427;-76
2023/10/06 09:03:46;;;;;;;;;16.25;14.75;;;;;24.56;40.29;102285.94;4997746;28;45526;-77
2023/10/06 09:06:12;;;;;;;;;15.50;15.50;;;;;24.56;40.48;102296.03;5003547;28;45652;-77
2023/10/06 09:08:43;;;;;;;;;18.50;17.00;;;;;24.62;40.40;102284.56;4996798;28;46156;-77
2023/10/06 09:11:09;;;;;;;;;18.75;18.75;;;;;24.63;40.37;102283.56;4996733;28;45352;-77
2023/10/06 09:13:36;;;;;;;;;17.75;17.75;;;;;24.65;40.36;102293.44;4997908;28;45381;-77
2023/10/06 09:16:08;;;;;;;;;15.75;15.75;;;;;24.54;40.61;102276.97;5002720;28;45522;-77
2023/10/06 09:18:39;;;;;;;;;19.25;17.25;;;;;24.81;40.36;102290.31;4987936;28;46122;-77
2023/10/06 09:21:17;;;;;;;;;18.50;16.75;;;;;24.97;40.39;102285.34;5014896;28;45328;-78
2023/10/06 09:23:43;;;;;;;;;18.50;17.00;;;;;25.16;40.27;102281.94;5003859;28;45384;-77
2023/10/06 09:26:11;;;;;;;;;17.75;16.50;;;;;25.15;39.69;102291.19;5001017;28;47189;-78
2023/10/06 09:28:55;;;;;;;;;18.00;16.50;;;;;25.28;39.16;102300.13;5000603;28;46421;-78
2023/10/06 09:31:33;;;;;;;;;14.00;14.00;;;;;25.34;39.19;102299.63;5008633;28;45451;-79
2023/10/06 09:33:59;;;;;;;;;14.25;13.50;;;;;25.28;39.25;102283.66;4997033;28;45530;-77
2023/10/06 09:36:30;;;;;;;;;13.75;13.75;;;;;25.47;39.12;102288.47;4996304;28;45299;-77
2023/10/06 09:39:03;;;;;;;;;16.50;14.75;;;;;25.64;39.00;102282.47;4995960;28;45517;-77
2023/10/06 09:41:30;;;;;;;;;13.25;13.25;;;;;25.65;39.07;102275.97;4996502;28;45475;-78
2023/10/06 09:44:03;;;;;;;;;11.75;11.25;;;;;25.66;38.74;102257.63;4997670;28;45340;-77
2023/10/06 09:46:29;;;;;;;;;13.00;11.00;;;;;25.99;38.10;102284.94;4997295;28;45340;-78
2023/10/06 09:49:00;;;;;;;;;14.00;10.75;;;;;26.11;38.15;102280.25;5012032;28;45487;-78
2023/10/06 09:51:31;;;;;;;;;12.00;10.50;;;;;26.06;37.41;102274.28;5009942;28;45385;-79
2023/10/06 09:53:58;;;;;;;;;13.75;9.50;;;;;26.20;37.70;102280.28;5010080;28;45228;-78
2023/10/06 09:56:23;;;;;;;;;16.75;14.00;;;;;26.19;36.90;102269.47;4997088;28;45214;-77
2023/10/06 09:58:49;;;;;;;;;15.25;12.75;;;;;26.21;37.17;102276.53;5013510;28;46187;-73
2023/10/06 10:01:15;;;;;;;;;13.00;11.50;;;;;26.09;36.58;102268.53;4991579;28;45297;-78
2023/10/06 10:03:45;;;;;;;;;9.50;8.75;;;;;26.24;36.62;102272.66;4988360;28;45333;-81
2023/10/06 10:06:10;;;;;;;;;14.50;11.00;;;;;26.34;36.92;102266.25;5001212;28;45626;-76
2023/10/06 10:08:37;;;;;;;;;13.50;10.75;;;;;26.39;36.90;102265.84;5003943;28;46012;-79
2023/10/06 10:11:16;;;;;;;;;11.75;11.00;;;;;26.45;36.85;102269.94;4984799;28;45462;-79
2023/10/06 10:13:59;;;;;;;;;10.25;9.00;;;;;26.43;36.05;102278.31;4996138;28;45412;-79
2023/10/06 10:16:25;;;;;;;;;13.00;10.00;;;;;26.49;36.54;102276.91;4994090;28;45467;-74
2023/10/06 10:19:07;;;;;;;;;9.75;8.25;;;;;26.47;35.70;102267.91;4988782;28;47516;-76
2023/10/06 10:21:36;;;;;;;;;9.00;9.00;;;;;26.50;35.62;102262.13;5005300;28;45404;-77
2023/10/06 10:24:05;;;;;;;;;14.50;9.50;;;;;26.59;35.46;102275.06;4994074;28;45423;-77
2023/10/06 10:26:35;;;;;;;;;7.50;7.50;;;;;26.70;34.62;102272.25;4994041;28;45439;-78
2023/10/06 10:29:12;;;;;;;;;10.50;9.50;;;;;26.71;34.64;102269.31;5002384;28;45347;-78
2023/10/06 10:31:43;;;;;;;;;7.75;5.75;;;;;26.60;34.39;102252.94;5013832;28;45336;-75
2023/10/06 10:34:20;;;;;;;;;5.00;5.00;;;;;26.86;34.03;102269.84;5013770;28;45293;-75
2023/10/06 10:37:07;;;;;;;;;8.50;7.25;;;;;26.79;34.65;102238.38;5013902;28;45534;-81
2023/10/06 10:39:52;;;;;;;;;11.50;7.50;;;;;26.83;34.35;102256.34;5012847;28;45557;-74
2023/10/06 10:42:38;;;;;;;;;6.00;6.00;;;;;26.87;33.99;102252.31;5007628;28;45535;-75
2023/10/06 10:45:34;;;;;;;;;10.25;9.00;;;;;26.96;33.98;102247.91;4994128;28;45541;-80
2023/10/06 10:48:10;;;;;;;;;8.50;7.25;;;;;27.07;33.65;102243.13;4997794;28;45301;-77
2023/10/06 10:51:00;;;;;;;;;7.00;7.00;;;;;27.11;33.34;102243.72;5014976;28;47278;-77
2023/10/06 10:53:44;;;;;;;;;7.75;7.75;;;;;27.34;33.17;102225.94;5016368;28;45434;-78
2023/10/06 10:56:25;;;;;;;;;8.00;6.00;;;;;27.37;33.05;102231.16;4987685;28;45398;-79
2023/10/06 10:58:53;;;;;;;;;11.25;7.25;;;;;27.59;33.59;102223.66;5006758;28;45551;-77
2023/10/06 11:01:36;;;;;;;;;8.00;6.25;;;;;27.89;33.65;102229.00;4997006;28;46144;-78
2023/10/06 11:04:13;;;;;;;;;6.75;6.00;;;;;28.20;32.58;102226.94;4997153;28;45396;-78
2023/10/06 11:06:39;;;;;;;;;7.25;6.00;;;;;28.37;31.43;102220.66;4996985;28;45398;-77
2023/10/06 11:09:12;;;;;;;;;6.00;6.00;;;;;28.88;31.05;102219.28;4997219;28;45311;-78
2023/10/06 11:11:41;;;;;;;;;6.00;6.00;;;;;29.46;31.08;102208.75;4996159;28;48260;-79
2023/10/06 11:14:07;;;;;;;;;6.25;5.00;;;;;29.76;29.62;102207.47;5002573;28;45435;-78
2023/10/06 11:16:32;;;;;;;;;4.75;4.50;;;;;30.50;29.55;102220.81;4997232;28;45757;-77
2023/10/06 11:18:59;;;;;;;;;9.00;7.00;;;;;31.01;28.30;102221.75;4996622;28;45510;-76
2023/10/06 11:21:25;;;;;;;;;8.00;8.00;;;;;31.37;28.17;102226.03;4986833;28;46578;-79
2023/10/06 11:23:50;;;;;;;;;10.00;7.50;;;;;31.48;26.72;102217.38;5001227;28;45479;-80
2023/10/06 11:26:30;;;;;;;;;8.50;7.00;;;;;31.79;26.67;102223.16;4997003;28;45785;-77
2023/10/06 11:28:56;;;;;;;;;6.50;6.25;;;;;32.50;26.93;102214.03;4996513;28;45585;-76
2023/10/06 11:31:23;;;;;;;;;10.50;8.75;;;;;33.13;25.79;102196.44;5006003;28;46183;-78
2023/10/06 11:33:49;;;;;;;;;7.25;7.00;;;;;33.82;25.25;102177.03;4998331;28;45425;-78
2023/10/06 11:36:16;;;;;;;;;8.50;7.25;;;;;34.77;23.27;102189.22;5016858;28;45686;-77
2023/10/06 11:38:42;;;;;;;;;5.25;5.25;;;;;35.53;22.39;102185.84;5016161;28;45541;-80
2023/10/06 11:41:07;;;;;;;;;4.50;3.00;;;;;36.09;21.24;102188.69;5006441;28;45249;-78
2023/10/06 11:43:33;;;;;;;;;7.25;6.75;;;;;36.19;21.56;102188.34;5010599;28;45447;-75
2023/10/06 11:46:02;;;;;;;;;4.25;4.25;;;;;37.02;20.45;102187.34;5014420;28;45424;-76
2023/10/06 11:48:29;;;;;;;;;5.75;5.50;;;;;38.25;19.55;102181.28;5006762;28;45313;-77
2023/10/06 11:51:08;;;;;;;;;5.75;5.75;;;;;38.46;18.62;102180.13;5001835;28;45573;-76
2023/10/06 11:53:35;;;;;;;;;5.75;5.75;;;;;38.64;18.72;102173.88;4993640;28;45822;-77
2023/10/06 11:56:12;;;;;;;;;5.75;5.00;;;;;38.81;19.46;102166.69;4996058;28;45357;-75
2023/10/06 11:58:40;;;;;;;;;6.25;6.00;;;;;38.97;18.56;102161.44;5008887;28;45454;-76
2023/10/06 12:01:26;;;;;;;;;4.75;4.50;;;;;39.09;18.42;102158.81;4996374;28;45439;-77
2023/10/06 12:03:51;;;;;;;;;7.00;4.25;;;;;39.42;18.57;102164.22;5013190;28;45463;-76
2023/10/06 12:06:17;;;;;;;;;7.25;5.25;;;;;39.02;17.42;102163.59;5006044;28;45712;-77
2023/10/06 12:08:44;;;;;;;;;6.00;5.25;;;;;38.58;18.18;102168.06;4996235;28;45402;-75
2023/10/06 12:11:12;;;;;;;;;7.25;5.75;;;;;38.50;17.79;102159.00;4995061;28;45344;-77
2023/10/06 12:13:37;;;;;;;;;5.50;4.00;;;;;38.38;18.68;102142.00;4996213;28;45495;-75
2023/10/06 12:16:12;;;;;;;;;7.50;5.25;;;;;38.50;18.55;102157.09;4996678;28;45544;-78
2023/10/06 12:18:38;;;;;;;;;6.00;4.25;;;;;38.71;18.33;102155.94;4996565;28;45610;-80
2023/10/06 12:21:05;;;;;;;;;9.00;5.50;;;;;38.97;18.38;102150.22;4995808;28;54434;-79
2023/10/06 12:23:32;;;;;;;;;6.00;5.00;;;;;38.58;17.29;102145.66;4995895;28;45404;-79
2023/10/06 12:25:57;;;;;;;;;4.00;4.00;;;;;38.38;17.90;102146.75;4996676;28;45599;-77
2023/10/06 12:28:22;;;;;;;;;4.00;4.00;;;;;37.82;17.33;102148.13;5000991;28;45496;-76
2023/10/06 12:30:48;;;;;;;;;5.75;3.00;;;;;37.26;18.47;102138.41;5001847;28;45970;-77
2023/10/06 12:33:13;;;;;;;;;4.00;3.75;;;;;37.08;18.99;102141.78;5008291;28;45432;-77
2023/10/06 12:35:39;;;;;;;;;3.25;3.25;;;;;36.33;18.39;102149.16;4997062;28;45345;-79
2023/10/06 12:38:06;;;;;;;;;6.00;4.00;;;;;36.19;19.24;102146.47;4995774;28;47220;-75
2023/10/06 12:40:32;;;;;;;;;5.25;3.25;;;;;35.83;19.14;102127.94;4998849;28;45349;-77
2023/10/06 12:42:57;;;;;;;;;6.00;5.25;;;;;35.54;19.42;102130.91;4988662;28;45353;-75
2023/10/06 12:45:23;;;;;;;;;5.50;5.50;;;;;35.35;19.77;102129.66;5015531;28;45453;-77
2023/10/06 12:47:50;;;;;;;;;5.75;4.50;;;;;35.05;20.17;102123.31;5016239;28;45494;-77
2023/10/06 12:50:17;;;;;;;;;4.00;4.00;;;;;34.88;19.95;102130.19;5014099;28;46085;-80
2023/10/06 12:52:49;;;;;;;;;3.00;3.00;;;;;34.46;19.74;102139.25;4990104;28;45301;-77
2023/10/06 12:55:16;;;;;;;;;0.00;0.00;;;;;33.51;21.04;102135.38;4999255;28;45453;-77
2023/10/06 12:57:41;;;;;;;;;6.00;4.75;;;;;33.06;21.67;102129.59;5020336;28;45462;-76
2023/10/06 13:00:08;;;;;;;;;5.00;4.75;;;;;33.22;22.10;102130.56;4998245;28;45384;-78
2023/10/06 13:02:35;;;;;;;;;4.50;4.00;;;;;33.48;21.97;102127.41;4995448;28;45395;-75
2023/10/06 13:05:13;;;;;;;;;5.75;3.50;;;;;33.38;22.06;102128.50;5008278;28;45343;-75
2023/10/06 13:07:38;;;;;;;;;2.50;2.50;;;;;33.72;21.10;102121.59;5000450;28;45738;-74
2023/10/06 13:10:06;;;;;;;;;3.00;3.00;;;;;34.12;20.97;102121.19;5009252;28;46308;-75
2023/10/06 13:12:39;;;;;;;;;5.50;4.00;;;;;34.79;20.21;102115.50;5006598;28;45407;-77
2023/10/06 13:15:08;;;;;;;;;3.50;3.50;;;;;35.20;19.84;102112.97;4996593;28;45441;-75
2023/10/06 13:17:34;;;;;;;;;1.50;1.50;;;;;35.91;18.97;102122.22;5010529;28;45312;-76
2023/10/06 13:19:59;;;;;;;;;3.00;3.00;;;;;36.58;18.67;102117.91;4994404;28;46193;-76
2023/10/06 13:22:27;;;;;;;;;5.00;3.00;;;;;36.71;18.08;102107.69;4995517;28;45383;-76
2023/10/06 13:24:56;;;;;;;;;3.25;3.00;;;;;37.00;18.25;102100.03;5005953;28;45471;-77
2023/10/06 13:27:23;;;;;;;;;4.75;3.50;;;;;37.72;18.46;102114.13;5006203;28;45407;-77
2023/10/06 13:29:53;;;;;;;;;1.25;1.25;;;;;38.59;17.31;102113.75;4987768;28;48434;-76
2023/10/06 13:32:18;;;;;;;;;6.00;3.75;;;;;38.74;15.69;102101.38;4997968;28;45453;-76
2023/10/06 13:34:44;;;;;;;;;2.50;2.50;;;;;38.94;15.74;102108.63;4994443;28;45477;-79
2023/10/06 13:37:09;;;;;;;;;4.00;3.00;;;;;38.94;16.07;102110.53;5005137;28;45553;-76
2023/10/06 13:39:34;;;;;;;;;3.25;3.25;;;;;39.63;15.24;102112.47;5002624;28;45809;-75
2023/10/06 13:42:03;;;;;;;;;4.25;1.00;;;;;39.83;15.84;102115.94;5015523;28;55763;-74
2023/10/06 13:44:28;;;;;;;;;3.75;2.75;;;;;39.89;14.57;102105.75;4996691;28;45444;-74
2023/10/06 13:46:54;;;;;;;;;4.00;3.00;;;;;40.12;15.52;102091.03;5010018;28;45421;-73
2023/10/06 13:49:29;;;;;;;;;2.75;2.75;;;;;40.40;14.18;102097.00;5007076;28;46381;-74
2023/10/06 13:51:54;;;;;;;;;3.00;2.00;;;;;40.65;14.74;102094.94;5013873;28;45469;-73
2023/10/06 13:54:19;;;;;;;;;4.00;2.00;;;;;40.96;14.57;102101.44;5002036;28;45375;-72
2023/10/06 13:56:45;;;;;;;;;3.67;1.33;;;;;41.13;14.46;102088.44;4995226;28;45285;-73
2023/10/06 13:59:14;;;;;;;;;2.00;2.00;;;;;41.24;15.61;102096.06;5012821;28;45571;-73
2023/10/06 14:01:39;;;;;;;;;4.00;2.25;;;;;40.90;15.01;102094.81;4997087;28;45619;-78
2023/10/06 14:04:05;;;;;;;;;5.00;1.00;;;;;41.18;14.89;102092.22;5000915;28;45510;-78
2023/10/06 14:06:30;;;;;;;;;3.25;2.25;;;;;41.85;14.35;102086.34;5005378;28;45327;-79
2023/10/06 14:08:56;;;;;;;;;3.25;3.00;;;;;42.62;13.97;102079.34;4993568;28;45368;-79
2023/10/06 14:11:21;;;;;;;;;2.00;2.00;;;;;43.09;12.88;102086.75;4994587;28;45372;-78
2023/10/06 14:13:49;;;;;;;;;6.00;4.75;;;;;43.47;13.23;102080.41;4994727;28;45320;-79
2023/10/06 14:16:22;;;;;;;;;2.25;1.25;;;;;43.84;13.40;102077.91;4994289;28;45313;-80
2023/10/06 14:18:47;;;;;;;;;4.75;3.75;;;;;43.22;12.85;102087.31;4987494;28;46995;-81
2023/10/06 14:21:13;;;;;;;;;2.00;2.00;;;;;43.46;13.42;102088.03;4997235;28;45541;-77
2023/10/06 14:23:47;;;;;;;;;5.25;3.00;;;;;43.97;13.64;102088.88;5007148;28;45428;-79
2023/10/06 14:26:12;;;;;;;;;3.50;2.25;;;;;44.39;12.94;102084.41;4998659;28;46140;-81
2023/10/06 14:28:39;;;;;;;;;6.75;3.25;;;;;44.56;12.49;102084.31;4991556;28;46005;-79
2023/10/06 14:31:34;;;;;;;;;1.75;1.75;;;;;44.60;13.09;102082.66;4997814;28;45404;-78
2023/10/06 14:34:09;;;;;;;;;4.00;3.50;;;;;44.27;12.87;102071.47;5016380;28;45603;-81
2023/10/06 14:36:36;;;;;;;;;3.00;2.25;;;;;44.40;13.02;102073.94;4999497;28;47026;-82
2023/10/06 14:47:07;;;;;;;;;3.00;2.00;;;;;44.65;12.20;102051.63;5022591;28;45201;-82
2023/10/06 14:49:32;;;;;;;;;5.25;4.00;;;;;44.50;12.49;102071.22;5018243;28;45538;-82
2023/10/06 14:51:58;;;;;;;;;6.75;6.25;;;;;44.41;13.49;102070.81;4994940;28;45901;-83
2023/10/06 14:54:32;;;;;;;;;3.50;2.50;;;;;44.27;13.23;102046.88;4986797;28;45725;-84
2023/10/06 14:56:59;;;;;;;;;4.00;4.00;;;;;43.55;12.72;102049.81;5004127;28;45758;-83
2023/10/06 14:59:30;;;;;;;;;4.25;3.25;;;;;42.92;13.32;102058.53;5011111;28;46277;-83
2023/10/06 15:01:55;;;;;;;;;3.25;2.00;;;;;42.90;13.52;102052.25;5004670;28;45407;-80
2023/10/06 15:04:22;;;;;;;;;2.25;2.25;;;;;42.55;13.80;102032.66;5017935;28;45357;-83
2023/10/06 15:06:47;;;;;;;;;5.00;4.00;;;;;42.37;14.04;102061.03;5013000;28;45142;-83
2023/10/06 15:09:18;;;;;;;;;4.00;2.50;;;;;41.95;14.94;102060.38;4999983;28;46081;-80
2023/10/06 15:11:47;;;;;;;;;6.75;3.25;;;;;41.78;14.58;102052.63;4998804;28;45360;-80
2023/10/06 15:14:13;;;;;;;;;3.75;2.50;;;;;41.78;15.05;102030.09;4999303;28;45466;-83
2023/10/06 15:16:40;;;;;;;;;2.75;1.00;;;;;41.76;15.45;102054.88;4981438;28;46577;-82
2023/10/06 15:19:06;;;;;;;;;4.75;2.00;;;;;41.68;14.81;102055.25;4993280;28;46654;-81
2023/10/06 15:21:34;;;;;;;;;8.75;3.00;;;;;41.59;15.19;102041.78;4991527;28;46259;-78
2023/10/06 15:24:00;;;;;;;;;2.75;2.75;;;;;41.56;15.77;102043.09;4998935;28;45399;-80
2023/10/06 15:26:26;;;;;;;;;5.50;3.25;;;;;41.14;15.63;102051.59;4997146;28;45292;-77
2023/10/06 15:28:55;;;;;;;;;4.00;3.00;;;;;40.98;15.10;102040.16;4997144;28;45669;-79
2023/10/06 15:31:20;;;;;;;;;4.50;3.00;;;;;40.73;15.67;102044.00;4996861;28;45477;-79
2023/10/06 15:33:46;;;;;;;;;3.00;3.00;;;;;40.67;15.99;102046.84;4997090;28;45390;-79
2023/10/06 15:36:16;;;;;;;;;3.25;3.25;;;;;40.24;15.73;102059.06;5000941;28;45535;-80
2023/10/06 15:38:43;;;;;;;;;4.50;3.00;;;;;40.01;15.48;102050.50;4996529;28;45374;-79
2023/10/06 15:41:15;;;;;;;;;6.00;4.50;;;;;39.72;15.57;102044.53;4996803;28;45373;-79
2023/10/06 15:43:42;;;;;;;;;4.00;2.50;;;;;39.56;15.33;102058.28;4996406;28;45274;-78
2023/10/06 15:46:10;;;;;;;;;4.00;3.00;;;;;39.02;16.37;102051.41;5010774;28;45503;-77
2023/10/06 15:48:38;;;;;;;;;7.50;4.75;;;;;38.74;16.89;102045.28;4996076;28;47157;-76
2023/10/06 15:51:07;;;;;;;;;6.00;3.00;;;;;38.69;16.26;102039.50;5007406;28;45381;-78
2023/10/06 15:53:37;;;;;;;;;4.75;2.25;;;;;38.20;16.68;102039.06;5005798;28;45340;-79
2023/10/06 15:56:07;;;;;;;;;2.75;2.75;;;;;37.85;17.00;102040.47;4996342;28;46296;-78
2023/10/06 15:58:42;;;;;;;;;5.00;3.25;;;;;37.64;16.82;102043.50;4993421;28;47341;-79
2023/10/06 16:01:09;;;;;;;;;2.25;2.25;;;;;37.45;17.33;102043.25;5007916;28;45591;-76
2023/10/06 16:03:40;;;;;;;;;2.00;2.00;;;;;37.33;17.81;102038.56;5002675;28;45402;-78
2023/10/06 16:06:08;;;;;;;;;2.00;2.00;;;;;36.83;17.41;102042.78;4995767;28;45267;-77
2023/10/06 16:08:34;;;;;;;;;5.25;4.50;;;;;36.36;17.99;102039.81;4996470;28;45340;-78
2023/10/06 16:11:07;;;;;;;;;3.00;3.00;;;;;36.14;18.09;102031.75;4995843;28;45463;-79
2023/10/06 16:13:36;;;;;;;;;4.25;4.25;;;;;35.91;18.43;102044.06;4987820;28;45533;-79
2023/10/06 16:16:02;;;;;;;;;3.50;2.50;;;;;35.56;18.89;102011.59;4996759;28;45389;-80
2023/10/06 16:18:29;;;;;;;;;4.00;3.00;;;;;35.64;19.15;102036.56;5007140;28;45509;-77
2023/10/06 16:20:59;;;;;;;;;3.00;2.50;;;;;35.35;18.45;102008.88;5018032;28;45243;-78
2023/10/06 16:23:26;;;;;;;;;4.75;2.75;;;;;35.31;18.57;102041.88;4997821;28;45477;-80
2023/10/06 16:25:53;;;;;;;;;3.00;3.00;;;;;35.19;18.99;102051.81;4992563;28;46464;-78
2023/10/06 16:28:18;;;;;;;;;2.00;2.00;;;;;34.83;19.31;102041.63;5013333;28;45442;-78
2023/10/06 16:30:47;;;;;;;;;2.00;2.00;;;;;34.61;18.69;102041.75;5013830;28;45370;-76
2023/10/06 16:33:13;;;;;;;;;2.50;2.50;;;;;34.29;19.53;102031.94;5012378;28;45572;-76
2023/10/06 16:35:43;;;;;;;;;2.50;2.50;;;;;34.10;19.42;102038.97;4996944;28;45968;-77
2023/10/06 16:38:09;;;;;;;;;3.25;2.25;;;;;33.78;20.05;102026.28;4997054;28;47047;-78
2023/10/06 16:40:36;;;;;;;;;3.00;3.00;;;;;33.58;19.78;102030.66;4996916;28;45501;-77
2023/10/06 16:43:02;;;;;;;;;2.25;2.25;;;;;33.38;20.87;102056.22;5012668;28;45311;-75
2023/10/06 16:45:28;;;;;;;;;2.75;2.75;;;;;33.14;20.52;102036.97;4995366;28;47145;-78
2023/10/06 16:47:55;;;;;;;;;3.00;3.00;;;;;33.09;21.09;102053.34;5004326;28;46221;-77
2023/10/06 16:50:22;;;;;;;;;4.00;4.00;;;;;32.92;20.53;102055.34;5000016;28;45499;-79
2023/10/06 16:52:53;;;;;;;;;3.75;3.75;;;;;32.80;20.50;102058.75;5004012;28;45377;-78
2023/10/06 16:55:18;;;;;;;;;5.25;5.25;;;;;32.67;21.49;102071.28;4994925;28;45321;-76
2023/10/06 16:57:45;;;;;;;;;2.75;2.75;;;;;32.51;21.46;102071.41;5012691;28;46183;-76
2023/10/06 17:00:12;;;;;;;;;4.50;3.75;;;;;32.20;22.26;102060.28;4996778;28;45365;-76
2023/10/06 17:02:38;;;;;;;;;3.75;2.75;;;;;32.10;22.61;102073.47;4995464;28;45337;-78
2023/10/06 17:05:04;;;;;;;;;3.00;3.00;;;;;31.88;22.62;102055.69;5000818;28;45543;-80
2023/10/06 17:07:30;;;;;;;;;3.00;1.75;;;;;31.88;22.30;102082.56;5005384;28;45460;-78
2023/10/06 17:09:59;;;;;;;;;3.00;3.00;;;;;31.75;23.07;102079.44;4993215;28;45628;-80
2023/10/06 17:12:26;;;;;;;;;6.75;5.25;;;;;31.65;23.51;102079.66;4992482;28;45492;-79
2023/10/06 17:14:52;;;;;;;;;2.75;2.75;;;;;31.59;23.32;102075.66;5017669;28;45400;-80
2023/10/06 17:17:19;;;;;;;;;2.75;2.75;;;;;31.47;23.63;102070.66;4984822;28;47037;-81
2023/10/06 17:19:45;;;;;;;;;1.50;1.50;;;;;31.45;23.35;102069.94;5014966;28;45250;-78
2023/10/06 17:22:11;;;;;;;;;2.00;2.00;;;;;31.33;22.86;102072.19;4989140;28;45740;-75
2023/10/06 17:24:36;;;;;;;;;1.00;1.00;;;;;31.26;23.14;102075.84;5011347;28;45294;-77
2023/10/06 17:27:01;;;;;;;;;4.00;4.00;;;;;31.24;23.95;102081.56;5003257;28;46127;-77
2023/10/06 17:29:27;;;;;;;;;4.00;4.00;;;;;31.24;23.71;102084.31;5011827;28;45221;-77
2023/10/06 17:31:56;;;;;;;;;4.50;3.25;;;;;31.16;24.36;102085.19;5009775;28;45538;-76
2023/10/06 17:34:24;;;;;;;;;3.25;3.25;;;;;30.98;23.63;102059.50;5012644;28;45454;-79
2023/10/06 17:36:50;;;;;;;;;5.50;4.25;;;;;31.12;24.30;102092.13;5012950;28;46535;-79
2023/10/06 17:39:18;;;;;;;;;4.50;4.00;;;;;31.01;24.39;102073.03;5006497;28;45414;-83
2023/10/06 17:41:44;;;;;;;;;4.00;4.00;;;;;31.15;24.68;102086.22;4997825;28;45326;-77
2023/10/06 17:44:10;;;;;;;;;4.75;4.75;;;;;30.93;24.47;102058.31;5015794;28;52028;-75
2023/10/06 17:46:35;;;;;;;;;4.00;4.00;;;;;31.01;25.52;102097.97;5010055;28;45503;-77